createdAt,value
2023-04-06T00:01:43.982Z,56.88
2023-04-06T00:04:17.381Z,56.66
2023-04-06T00:06:46.020Z,57.57
2023-04-06T00:09:20.660Z,56.44
2023-04-06T00:11:53.818Z,56.37
2023-04-06T00:14:23.561Z,56.51
2023-04-06T00:16:58.744Z,56.41
2023-04-06T00:19:33.891Z,56.95
2023-04-06T00:22:03.824Z,56.54
2023-04-06T00:24:32.575Z,55.08
2023-04-06T00:27:01.248Z,54.60
2023-04-06T00:29:29.590Z,55.52
2023-04-06T00:31:59.933Z,54.93
2023-04-06T00:34:28.858Z,55.09
2023-04-06T00:36:59.980Z,56.23
2023-04-06T00:39:30.639Z,56.57
2023-04-06T00:42:07.104Z,56.89
2023-04-06T00:44:35.586Z,58.11
2023-04-06T00:47:06.228Z,57.99
2023-04-06T00:49:35.981Z,57.25
2023-04-06T00:52:13.007Z,58.04
2023-04-06T00:54:47.300Z,58.49
2023-04-06T00:57:19.231Z,57.57
2023-04-06T00:59:47.097Z,57.86
2023-04-06T01:02:17.128Z,57.02
2023-04-06T01:04:44.946Z,57.43
2023-04-06T01:07:13.669Z,57.81
2023-04-06T01:09:43.024Z,58.14
2023-04-06T01:12:11.494Z,58.07
2023-04-06T01:14:44.281Z,59.31
2023-04-06T01:17:13.049Z,58.87
2023-04-06T01:19:47.821Z,57.04
2023-04-06T01:22:19.618Z,56.34
2023-04-06T01:24:54.688Z,56.87
2023-04-06T01:27:23.521Z,58.21
2023-04-06T01:29:53.878Z,57.61
2023-04-06T01:32:27.802Z,57.19
2023-04-06T01:34:59.049Z,56.93
2023-04-06T01:37:31.255Z,58.19
2023-04-06T01:40:04.510Z,57.59
2023-04-06T01:42:32.882Z,58.44
2023-04-06T01:45:06.005Z,58.87
2023-04-06T01:47:38.759Z,57.93
2023-04-06T01:50:09.814Z,58.80
2023-04-06T01:52:42.418Z,59.10
2023-04-06T01:55:11.309Z,57.94
2023-04-06T01:57:41.497Z,59.17
2023-04-06T02:00:11.495Z,59.67
2023-04-06T02:02:44.889Z,59.99
2023-04-06T02:05:16.107Z,59.06
2023-04-06T02:07:46.668Z,59.57
2023-04-06T02:10:21.703Z,60.14
2023-04-06T02:12:52.620Z,60.11
2023-04-06T02:15:23.967Z,60.36
2023-04-06T02:17:53.902Z,59.40
2023-04-06T02:20:22.640Z,60.30
2023-04-06T02:22:52.852Z,59.89
2023-04-06T02:25:21.760Z,60.02
2023-04-06T02:27:50.174Z,60.91
2023-04-06T02:33:14.794Z,61.07
2023-04-06T02:35:48.016Z,61.67
2023-04-06T02:38:21.848Z,60.84
2023-04-06T02:40:53.342Z,60.59
2023-04-06T02:43:49.605Z,59.82
2023-04-06T02:46:19.314Z,59.61
2023-04-06T02:48:49.138Z,60.53
2023-04-06T02:51:18.441Z,60.97
2023-04-06T02:53:48.410Z,61.97
2023-04-06T02:56:22.865Z,61.88
2023-04-06T02:58:57.404Z,60.74
2023-04-06T03:01:28.203Z,60.89
2023-04-06T03:04:01.940Z,61.54
2023-04-06T03:06:43.590Z,62.16
2023-04-06T03:09:16.145Z,62.38
2023-04-06T03:11:47.095Z,62.20
2023-04-06T03:14:22.991Z,62.18
2023-04-06T03:16:57.191Z,62.36
2023-04-06T03:19:25.650Z,59.74
2023-04-06T03:22:07.806Z,60.10
2023-04-06T03:24:40.187Z,60.38
2023-04-06T03:27:11.416Z,60.70
2023-04-06T03:29:39.589Z,61.52
2023-04-06T03:32:11.074Z,60.89
2023-04-06T03:34:42.127Z,61.66
2023-04-06T03:37:10.949Z,62.11
2023-04-06T03:39:41.168Z,60.76
2023-04-06T03:42:09.925Z,61.51
2023-04-06T03:44:38.434Z,61.69
2023-04-06T03:47:10.383Z,61.87
2023-04-06T03:49:40.464Z,63.09
2023-04-06T03:52:14.009Z,61.84
2023-04-06T03:54:43.778Z,61.98
2023-04-06T03:57:16.244Z,62.89
2023-04-06T03:59:47.238Z,62.76
2023-04-06T04:02:16.058Z,62.69
2023-04-06T04:04:48.270Z,61.83
2023-04-06T04:07:23.882Z,63.45
2023-04-06T04:09:54.086Z,62.56
2023-04-06T04:12:25.911Z,62.76
2023-04-06T04:14:56.470Z,62.42
2023-04-06T04:17:34.419Z,62.24
2023-04-06T04:20:05.399Z,61.71
2023-04-06T04:22:38.189Z,60.86
2023-04-06T04:25:11.821Z,60.78
2023-04-06T04:27:41.018Z,60.83
2023-04-06T04:30:09.795Z,60.80
2023-04-06T04:32:37.984Z,62.95
2023-04-06T04:35:07.932Z,61.29
2023-04-06T04:37:39.540Z,62.48
2023-04-06T04:40:14.050Z,62.33
2023-04-06T04:42:43.291Z,61.56
2023-04-06T04:45:12.919Z,61.16
2023-04-06T04:47:42.851Z,60.69
2023-04-06T04:50:17.259Z,61.01
2023-04-06T04:52:45.822Z,60.69
2023-04-06T04:55:24.083Z,61.26
2023-04-06T04:57:54.793Z,61.96
2023-04-06T05:00:24.925Z,62.14
2023-04-06T05:02:55.095Z,60.49
2023-04-06T05:05:28.545Z,60.66
2023-04-06T05:07:59.741Z,61.53
2023-04-06T05:10:29.536Z,62.05
2023-04-06T05:12:57.495Z,61.70
2023-04-06T05:15:25.763Z,61.00
2023-04-06T05:17:54.390Z,62.24
2023-04-06T05:20:30.087Z,61.65
2023-04-06T05:23:00.615Z,60.79
2023-04-06T05:25:36.156Z,62.41
2023-04-06T05:28:09.691Z,60.00
2023-04-06T05:30:38.072Z,59.65
2023-04-06T05:33:08.397Z,57.41
2023-04-06T05:35:39.749Z,58.57
2023-04-06T05:38:10.285Z,58.76
2023-04-06T05:40:43.986Z,59.11
2023-04-06T05:43:12.400Z,58.28
2023-04-06T05:45:41.203Z,58.55
2023-04-06T05:48:09.522Z,58.88
2023-04-06T05:50:41.924Z,59.09
2023-04-06T05:53:12.227Z,57.96
2023-04-06T05:55:49.693Z,58.21
2023-04-06T05:58:19.101Z,57.45
2023-04-06T06:00:48.233Z,57.97
2023-04-06T06:03:23.605Z,57.18
2023-04-06T06:05:54.929Z,58.64
2023-04-06T06:08:23.057Z,57.58
2023-04-06T06:10:53.940Z,57.76
2023-04-06T06:13:24.871Z,57.95
2023-04-06T06:15:56.359Z,58.21
2023-04-06T06:18:24.469Z,59.72
2023-04-06T06:20:52.312Z,60.09
2023-04-06T06:23:29.624Z,60.23
2023-04-06T06:26:03.144Z,59.84
2023-04-06T06:28:31.462Z,59.24
2023-04-06T06:31:00.969Z,58.15
2023-04-06T06:33:29.730Z,57.98
2023-04-06T06:36:01.056Z,57.86
2023-04-06T06:38:29.467Z,56.55
2023-04-06T06:41:07.599Z,55.73
2023-04-06T06:43:40.437Z,55.28
2023-04-06T06:46:13.685Z,55.53
2023-04-06T06:48:46.492Z,55.33
2023-04-06T06:51:14.566Z,55.38
2023-04-06T06:53:56.308Z,55.71
2023-04-06T06:56:35.033Z,55.96
2023-04-06T06:59:09.173Z,55.61
2023-04-06T07:01:39.975Z,54.28
2023-04-06T07:04:10.993Z,53.54
2023-04-06T07:06:44.341Z,54.56
2023-04-06T07:09:13.081Z,55.06
2023-04-06T07:11:47.065Z,54.62
2023-04-06T07:14:20.156Z,54.73
2023-04-06T07:16:59.604Z,54.66
2023-04-06T07:19:31.393Z,54.21
2023-04-06T07:22:00.803Z,53.71
2023-04-06T07:24:31.549Z,54.43
2023-04-06T07:27:01.991Z,52.45
2023-04-06T07:29:34.724Z,52.10
2023-04-06T07:32:06.535Z,51.98
2023-04-06T07:34:44.473Z,52.59
2023-04-06T07:37:16.853Z,53.25
2023-04-06T07:39:51.286Z,52.80
2023-04-06T07:42:21.128Z,53.09
2023-04-06T07:44:54.188Z,51.76
2023-04-06T07:47:23.073Z,51.60
2023-04-06T07:49:55.916Z,51.20
2023-04-06T07:52:34.656Z,50.00
2023-04-06T07:55:04.259Z,50.09
2023-04-06T07:57:32.936Z,49.32
2023-04-06T08:00:05.104Z,48.58
2023-04-06T08:02:36.759Z,50.25
2023-04-06T08:05:05.769Z,49.57
2023-04-06T08:07:34.087Z,48.97
2023-04-06T08:10:02.524Z,47.58
2023-04-06T08:12:31.249Z,46.68
2023-04-06T08:15:00.920Z,47.39
2023-04-06T08:17:33.540Z,46.14
2023-04-06T08:20:02.054Z,44.81
2023-04-06T08:22:45.048Z,42.85
2023-04-06T08:25:19.291Z,43.31
2023-04-06T08:27:57.158Z,43.33
2023-04-06T08:30:31.886Z,42.67
2023-04-06T08:33:06.922Z,41.98
2023-04-06T08:35:35.628Z,40.33
2023-04-06T08:38:15.444Z,41.75
2023-04-06T08:40:51.107Z,40.22
2023-04-06T08:43:21.500Z,39.81
2023-04-06T08:45:52.499Z,38.33
2023-04-06T08:48:26.902Z,38.06
2023-04-06T08:50:55.493Z,38.40
2023-04-06T08:53:24.456Z,37.99
2023-04-06T08:55:54.716Z,39.15
2023-04-06T08:58:35.029Z,39.45
2023-04-06T09:01:09.342Z,38.58
2023-04-06T09:03:43.212Z,39.01
2023-04-06T09:06:12.235Z,38.37
2023-04-06T09:08:41.953Z,39.12
2023-04-06T09:11:12.016Z,37.59
2023-04-06T09:14:03.457Z,39.22
2023-04-06T09:16:41.469Z,39.88
2023-04-06T09:19:14.263Z,38.84
2023-04-06T09:21:47.904Z,37.39
2023-04-06T09:24:16.332Z,38.38
2023-04-06T09:26:52.408Z,37.64
2023-04-06T09:29:29.730Z,39.00
2023-04-06T09:32:06.166Z,37.74
2023-04-06T09:34:39.656Z,38.60
2023-04-06T09:37:26.307Z,37.17
2023-04-06T09:40:08.572Z,37.95
2023-04-06T09:42:58.754Z,38.41
2023-04-06T09:48:26.473Z,36.30
2023-04-06T09:51:02.243Z,37.17
2023-04-06T09:53:34.508Z,37.02
2023-04-06T09:56:09.359Z,37.92
2023-04-06T09:58:39.956Z,38.70
2023-04-06T10:01:11.603Z,38.74
2023-04-06T10:03:49.252Z,38.45
2023-04-06T10:06:24.173Z,36.62
2023-04-06T10:08:55.456Z,40.71
2023-04-06T10:11:24.525Z,39.70
2023-04-06T10:13:53.915Z,37.02
2023-04-06T10:16:23.547Z,38.86
2023-04-06T10:18:55.377Z,37.03
2023-04-06T10:21:32.143Z,36.17
2023-04-06T10:24:06.701Z,35.46
2023-04-06T10:26:34.975Z,35.71
2023-04-06T10:29:16.910Z,36.34
2023-04-06T10:31:47.358Z,37.19
2023-04-06T10:34:20.295Z,37.74
2023-04-06T10:36:53.780Z,38.39
2023-04-06T10:39:28.415Z,37.16
2023-04-06T10:41:56.304Z,36.48
2023-04-06T10:44:25.321Z,37.78
2023-04-06T10:46:57.861Z,36.80
2023-04-06T10:49:31.073Z,36.49
2023-04-06T10:52:01.394Z,36.83
2023-04-06T10:54:34.046Z,35.11
2023-04-06T10:57:02.519Z,35.57
2023-04-06T10:59:31.607Z,35.08
2023-04-06T11:02:00.474Z,35.27
2023-04-06T11:04:28.779Z,38.67
2023-04-06T11:06:56.870Z,36.67
2023-04-06T11:09:32.665Z,36.54
2023-04-06T11:12:01.854Z,34.92
2023-04-06T11:14:31.980Z,33.81
2023-04-06T11:17:00.614Z,33.27
2023-04-06T11:19:31.795Z,33.44
2023-04-06T11:22:09.091Z,34.62
2023-04-06T11:24:38.751Z,35.34
2023-04-06T11:27:06.984Z,38.21
2023-04-06T11:29:37.962Z,39.70
2023-04-06T11:32:08.528Z,35.29
2023-04-06T11:34:39.617Z,34.46
2023-04-06T11:37:15.901Z,35.49
2023-04-06T11:40:00.877Z,33.83
2023-04-06T11:42:33.955Z,33.25
2023-04-06T11:45:03.437Z,33.17
2023-04-06T11:47:32.626Z,32.84
2023-04-06T11:50:09.781Z,33.42
2023-04-06T11:52:39.217Z,32.40
2023-04-06T11:55:20.036Z,32.22
2023-04-06T11:57:58.533Z,31.32
2023-04-06T12:00:27.131Z,30.14
2023-04-06T12:02:55.394Z,31.37
2023-04-06T12:05:26.990Z,30.75
2023-04-06T12:08:00.129Z,29.17
2023-04-06T12:10:41.619Z,30.31
2023-04-06T12:13:22.511Z,30.11
2023-04-06T12:15:53.420Z,29.53
2023-04-06T12:18:23.768Z,30.24
2023-04-06T12:20:51.735Z,29.30
2023-04-06T12:23:20.724Z,31.50
2023-04-06T12:25:55.699Z,32.79
2023-04-06T12:28:28.044Z,31.20
2023-04-06T12:30:58.840Z,32.35
2023-04-06T12:33:27.074Z,31.56
2023-04-06T12:36:01.049Z,32.39
2023-04-06T12:38:32.276Z,31.33
2023-04-06T12:41:04.998Z,30.74
2023-04-06T12:43:34.226Z,30.70
2023-04-06T12:46:02.244Z,28.91
2023-04-06T12:48:31.114Z,29.05
2023-04-06T12:51:02.086Z,29.16
2023-04-06T12:53:30.478Z,29.96
2023-04-06T12:56:03.627Z,30.16
2023-04-06T12:58:32.224Z,32.06
2023-04-06T13:01:04.213Z,30.51
2023-04-06T13:03:32.584Z,31.31
2023-04-06T13:06:01.990Z,31.83
2023-04-06T13:08:30.138Z,30.87
2023-04-06T13:10:59.036Z,29.64
2023-04-06T13:13:37.773Z,29.45
2023-04-06T13:16:08.618Z,29.13
2023-04-06T13:18:45.103Z,30.52
2023-04-06T13:21:17.028Z,30.97
2023-04-06T13:23:54.890Z,32.30
2023-04-06T13:26:23.156Z,32.81
2023-04-06T13:28:57.008Z,32.13
2023-04-06T13:31:25.663Z,32.63
2023-04-06T13:34:10.907Z,33.19
2023-04-06T13:36:45.377Z,33.28
2023-04-06T13:39:18.784Z,31.00
2023-04-06T13:41:47.557Z,33.63
2023-04-06T13:44:22.728Z,33.38
2023-04-06T13:46:50.801Z,32.98
2023-04-06T13:49:20.646Z,33.15
2023-04-06T13:51:48.953Z,33.40
2023-04-06T13:54:22.193Z,33.40
2023-04-06T13:56:52.742Z,33.67
2023-04-06T13:59:29.871Z,35.20
2023-04-06T14:01:58.686Z,33.12
2023-04-06T14:04:27.086Z,33.28
2023-04-06T14:06:55.511Z,31.00
2023-04-06T14:09:23.494Z,31.31
2023-04-06T14:12:02.518Z,33.35
2023-04-06T14:14:39.593Z,33.82
2023-04-06T14:17:15.615Z,32.87
2023-04-06T14:19:44.080Z,32.96
2023-04-06T14:22:12.156Z,33.02
2023-04-06T14:24:40.171Z,34.73
2023-04-06T14:27:10.889Z,35.46
2023-04-06T14:29:40.539Z,35.61
2023-04-06T14:32:11.534Z,35.54
2023-04-06T14:34:39.676Z,34.87
2023-04-06T14:37:10.757Z,34.42
2023-04-06T14:39:44.647Z,34.21
2023-04-06T14:42:12.917Z,36.40
2023-04-06T14:44:47.653Z,36.15
2023-04-06T14:47:17.184Z,37.18
2023-04-06T14:49:45.793Z,37.32
2023-04-06T14:52:16.016Z,36.61
2023-04-06T14:54:46.408Z,37.18
2023-04-06T14:57:27.349Z,38.22
2023-04-06T14:59:57.052Z,37.65
2023-04-06T15:02:27.155Z,38.11
2023-04-06T15:04:55.297Z,39.07
2023-04-06T15:07:23.719Z,38.44
2023-04-06T15:09:52.242Z,36.84
2023-04-06T15:12:21.749Z,37.24
2023-04-06T15:14:49.608Z,37.17
2023-04-06T15:17:19.684Z,38.91
2023-04-06T15:19:59.220Z,37.92
2023-04-06T15:22:29.761Z,39.50
2023-04-06T15:24:57.752Z,39.12
2023-04-06T15:27:25.804Z,38.38
2023-04-06T15:29:56.968Z,37.84
2023-04-06T15:32:29.800Z,38.79
2023-04-06T15:35:01.626Z,39.19
2023-04-06T15:37:31.649Z,38.78
2023-04-06T15:40:00.871Z,39.80
2023-04-06T15:42:29.492Z,38.99
2023-04-06T15:44:58.955Z,40.01
2023-04-06T15:47:33.040Z,39.87
2023-04-06T15:50:01.637Z,40.81
2023-04-06T15:52:31.464Z,41.14
2023-04-06T15:54:59.728Z,41.60
2023-04-06T15:57:31.333Z,42.23
2023-04-06T16:00:02.374Z,42.89
2023-04-06T16:02:32.076Z,42.16
2023-04-06T16:05:04.111Z,40.30
2023-04-06T16:07:33.428Z,40.50
2023-04-06T16:10:05.017Z,39.85
2023-04-06T16:12:34.418Z,40.82
2023-04-06T16:15:02.521Z,40.50
2023-04-06T16:17:34.368Z,41.21
2023-04-06T16:20:12.981Z,41.82
2023-04-06T16:22:43.892Z,40.53
2023-04-06T16:25:23.268Z,40.47
2023-04-06T16:27:52.302Z,40.30
2023-04-06T16:30:21.214Z,39.74
2023-04-06T16:32:51.895Z,40.41
2023-04-06T16:35:21.000Z,40.29
2023-04-06T16:37:49.098Z,40.58
2023-04-06T16:40:17.587Z,41.11
2023-04-06T16:42:46.582Z,40.47
2023-04-06T16:45:19.839Z,37.75
2023-04-06T16:48:01.882Z,38.63
2023-04-06T16:50:32.276Z,39.14
2023-04-06T16:53:02.635Z,38.96
2023-04-06T16:55:31.074Z,38.72
2023-04-06T16:58:01.139Z,38.17
2023-04-06T17:00:35.008Z,39.07
2023-04-06T17:03:05.188Z,39.83
2023-04-06T17:05:36.325Z,40.69
2023-04-06T17:10:41.583Z,40.48
2023-04-06T17:13:22.595Z,40.61
2023-04-06T17:15:53.448Z,41.30
2023-04-06T17:18:24.490Z,42.48
2023-04-06T17:20:59.781Z,42.49
2023-04-06T17:23:28.822Z,42.49
2023-04-06T17:25:57.887Z,42.19
2023-04-06T17:28:28.804Z,42.26
2023-04-06T17:30:56.596Z,41.92
2023-04-06T17:33:32.523Z,42.64
2023-04-06T17:36:00.431Z,42.67
2023-04-06T17:38:28.275Z,42.60
2023-04-06T17:40:56.024Z,41.37
2023-04-06T17:43:23.793Z,41.49
2023-04-06T17:45:52.540Z,41.16
2023-04-06T17:48:22.943Z,41.56
2023-04-06T17:50:52.425Z,42.07
2023-04-06T17:53:28.612Z,40.63
2023-04-06T17:55:57.112Z,41.21
2023-04-06T17:58:25.372Z,41.36
2023-04-06T18:00:53.545Z,42.24
2023-04-06T18:03:21.635Z,40.55
2023-04-06T18:05:57.287Z,41.87
2023-04-06T18:08:25.324Z,41.96
2023-04-06T18:10:56.812Z,41.82
2023-04-06T18:13:24.637Z,41.26
2023-04-06T18:15:54.309Z,41.34
2023-04-06T18:18:24.862Z,40.26
2023-04-06T18:20:55.375Z,39.75
2023-04-06T18:23:27.624Z,40.01
2023-04-06T18:26:03.913Z,40.05
2023-04-06T18:28:32.666Z,40.97
2023-04-06T18:31:05.292Z,41.39
2023-04-06T18:33:33.867Z,42.27
2023-04-06T18:36:06.258Z,41.39
2023-04-06T18:38:39.888Z,41.18
2023-04-06T18:41:08.093Z,43.03
2023-04-06T18:43:40.531Z,42.65
2023-04-06T18:46:12.680Z,42.93
2023-04-06T18:48:45.364Z,40.76
2023-04-06T18:51:14.758Z,39.74
2023-04-06T18:53:54.132Z,41.43
2023-04-06T18:56:22.201Z,43.49
2023-04-06T18:58:50.467Z,43.83
2023-04-06T19:01:25.606Z,44.30
2023-04-06T19:03:59.832Z,43.31
2023-04-06T19:06:29.991Z,44.33
2023-04-06T19:08:59.244Z,44.60
2023-04-06T19:11:29.250Z,45.24
2023-04-06T19:13:58.120Z,45.20
2023-04-06T19:16:29.434Z,45.88
2023-04-06T19:18:58.208Z,45.21
2023-04-06T19:21:27.902Z,45.81
2023-04-06T19:23:58.558Z,48.38
2023-04-06T19:26:28.092Z,48.43
2023-04-06T19:29:07.309Z,47.24
2023-04-06T19:31:35.526Z,46.52
2023-04-06T19:34:04.415Z,47.43
2023-04-06T19:36:34.981Z,47.92
2023-04-06T19:39:07.062Z,48.14
2023-04-06T19:41:45.539Z,50.35
2023-04-06T19:44:15.901Z,49.15
2023-04-06T19:46:46.504Z,48.97
2023-04-06T19:49:14.807Z,48.87
2023-04-06T19:51:42.880Z,48.27
2023-04-06T19:54:21.496Z,49.74
2023-04-06T19:56:49.784Z,50.80
2023-04-06T19:59:26.346Z,50.66
2023-04-06T20:01:54.855Z,51.91
2023-04-06T20:04:26.634Z,52.09
2023-04-06T20:06:55.180Z,53.35
2023-04-06T20:09:25.965Z,55.75
2023-04-06T20:11:55.098Z,56.98
2023-04-06T20:14:23.475Z,58.34
2023-04-06T20:16:55.453Z,58.72
2023-04-06T20:19:26.129Z,60.82
2023-04-06T20:21:54.554Z,61.13
2023-04-06T20:24:22.773Z,60.14
2023-04-06T20:26:52.955Z,60.77
2023-04-06T20:29:31.423Z,60.41
2023-04-06T20:32:02.121Z,60.38
2023-04-06T20:34:30.057Z,60.09
2023-04-06T20:37:00.757Z,60.80
2023-04-06T20:39:31.206Z,60.56
2023-04-06T20:42:18.258Z,60.33
2023-04-06T20:44:48.882Z,58.84
2023-04-06T20:47:17.060Z,59.03
2023-04-06T20:49:45.396Z,59.25
2023-04-06T20:52:16.180Z,60.10
2023-04-06T20:54:51.212Z,59.92
2023-04-06T20:57:20.957Z,59.99
2023-04-06T20:59:48.914Z,59.88
2023-04-06T21:02:22.116Z,60.07
2023-04-06T21:04:51.651Z,60.29
2023-04-06T21:07:20.837Z,61.83
2023-04-06T21:09:56.524Z,61.90
2023-04-06T21:12:27.675Z,66.59
2023-04-06T21:14:58.000Z,67.36
2023-04-06T21:17:26.759Z,66.71
2023-04-06T21:19:55.041Z,66.84
2023-04-06T21:22:23.741Z,68.89
2023-04-06T21:24:55.017Z,69.32
2023-04-06T21:27:33.549Z,70.88
2023-04-06T21:30:04.030Z,70.44
2023-04-06T21:32:32.342Z,70.60
2023-04-06T21:35:00.773Z,70.39
2023-04-06T21:37:29.066Z,70.56
2023-04-06T21:40:02.063Z,71.28
2023-04-06T21:42:30.228Z,68.94
2023-04-06T21:44:59.170Z,69.10
2023-04-06T21:47:29.781Z,68.30
2023-04-06T21:50:00.808Z,68.32
2023-04-06T21:52:28.556Z,67.91
2023-04-06T21:55:00.860Z,67.71
2023-04-06T21:57:31.614Z,68.75
2023-04-06T21:59:59.808Z,68.58
2023-04-06T22:02:29.686Z,67.84
2023-04-06T22:05:00.369Z,67.80
2023-04-06T22:07:31.802Z,68.38
2023-04-06T22:10:03.124Z,67.72
2023-04-06T22:12:31.371Z,68.29
2023-04-06T22:15:03.101Z,68.79
2023-04-06T22:17:32.740Z,68.13
2023-04-06T22:20:02.829Z,68.39
2023-04-06T22:22:31.732Z,70.41
2023-04-06T22:25:01.092Z,69.03
2023-04-06T22:27:31.657Z,69.24
2023-04-06T22:30:05.727Z,70.01
2023-04-06T22:32:35.147Z,69.38
2023-04-06T22:35:03.333Z,69.62
2023-04-06T22:37:34.752Z,71.24
2023-04-06T22:40:11.661Z,70.96
2023-04-06T22:42:41.912Z,72.19
2023-04-06T22:45:12.894Z,73.81
2023-04-06T22:47:43.660Z,72.71
2023-04-06T22:50:24.217Z,72.70
2023-04-06T22:52:55.018Z,73.62
2023-04-06T22:55:33.819Z,73.63
2023-04-06T22:58:02.828Z,73.14
2023-04-06T23:00:31.164Z,75.39
2023-04-06T23:03:01.556Z,73.74
2023-04-06T23:05:29.878Z,75.96
2023-04-06T23:07:58.233Z,73.51
2023-04-06T23:10:30.266Z,74.76
2023-04-06T23:13:01.086Z,75.74
2023-04-06T23:15:29.515Z,76.11
2023-04-06T23:18:05.240Z,73.84
2023-04-06T23:20:33.351Z,75.61
2023-04-06T23:23:01.695Z,73.67
2023-04-06T23:25:33.086Z,76.15
2023-04-06T23:28:01.047Z,75.11
2023-04-06T23:30:34.756Z,74.13
2023-04-06T23:33:04.465Z,75.83
2023-04-06T23:35:32.962Z,75.64
2023-04-06T23:38:03.058Z,74.35
2023-04-06T23:40:33.763Z,73.02
2023-04-06T23:43:01.959Z,72.02
2023-04-06T23:45:40.336Z,72.88
2023-04-06T23:48:11.374Z,71.04
2023-04-06T23:50:39.888Z,71.59
2023-04-06T23:53:09.281Z,70.94
2023-04-06T23:55:41.934Z,71.30
2023-04-06T23:58:10.106Z,71.58
